createdAt,value
2017-10-25T00:02:16.139Z,2.40
2017-10-25T00:04:42.706Z,2.30
2017-10-25T00:07:09.297Z,2.20
2017-10-25T00:09:35.868Z,2.10
2017-10-25T00:12:02.436Z,3.00
2017-10-25T00:14:29.014Z,2.40
2017-10-25T00:16:55.597Z,2.60
2017-10-25T00:19:22.179Z,2.20
2017-10-25T00:21:48.752Z,2.30
2017-10-25T00:24:15.325Z,2.50
2017-10-25T00:26:41.909Z,2.50
2017-10-25T00:29:08.484Z,2.27
2017-10-25T00:31:35.064Z,2.30
2017-10-25T00:34:01.701Z,2.20
2017-10-25T00:36:28.273Z,2.50
2017-10-25T00:38:54.865Z,2.30
2017-10-25T00:41:21.443Z,2.03
2017-10-25T00:43:48.028Z,2.43
2017-10-25T00:46:14.604Z,2.10
2017-10-25T00:48:41.174Z,2.23
2017-10-25T00:51:07.781Z,2.03
2017-10-25T00:53:34.349Z,2.10
2017-10-25T00:56:00.949Z,2.20
2017-10-25T00:58:27.525Z,2.00
2017-10-25T01:00:54.092Z,2.10
2017-10-25T01:03:20.685Z,2.10
2017-10-25T01:05:48.092Z,2.03
2017-10-25T01:08:14.676Z,2.00
2017-10-25T01:10:41.288Z,1.83
2017-10-25T01:13:07.856Z,2.00
2017-10-25T01:15:34.435Z,2.30
2017-10-25T01:18:01.004Z,2.03
2017-10-25T01:20:27.577Z,1.80
2017-10-25T01:22:54.152Z,1.60
2017-10-25T01:25:20.721Z,1.80
2017-10-25T01:27:47.301Z,1.93
2017-10-25T01:30:13.888Z,1.97
2017-10-25T01:32:40.473Z,1.93
2017-10-25T01:35:07.050Z,2.13
2017-10-25T01:37:33.628Z,2.03
2017-10-25T01:40:00.201Z,1.97
2017-10-25T01:42:26.772Z,2.07
2017-10-25T01:44:53.360Z,1.87
2017-10-25T01:47:19.932Z,1.90
2017-10-25T01:49:46.518Z,1.90
2017-10-25T01:52:13.088Z,2.03
2017-10-25T01:54:39.657Z,2.00
2017-10-25T01:57:06.237Z,2.00
2017-10-25T01:59:32.805Z,2.17
2017-10-25T02:01:59.396Z,2.10
2017-10-25T02:04:25.982Z,1.97
2017-10-25T02:06:52.549Z,1.90
2017-10-25T02:09:19.125Z,1.80
2017-10-25T02:11:45.693Z,1.97
2017-10-25T02:14:12.292Z,2.23
2017-10-25T02:16:38.864Z,1.70
2017-10-25T02:19:05.454Z,1.77
2017-10-25T02:21:32.030Z,1.93
2017-10-25T02:23:58.615Z,2.27
2017-10-25T02:26:25.192Z,2.10
2017-10-25T02:28:51.761Z,2.20
2017-10-25T02:31:18.328Z,1.80
2017-10-25T02:33:44.908Z,2.07
2017-10-25T02:36:11.522Z,2.10
2017-10-25T02:38:38.114Z,1.80
2017-10-25T02:41:04.685Z,2.20
2017-10-25T02:43:31.249Z,2.17
2017-10-25T02:45:57.852Z,2.00
2017-10-25T02:48:24.428Z,2.17
2017-10-25T02:50:51.014Z,2.00
2017-10-25T02:53:17.604Z,2.13
2017-10-25T02:55:44.171Z,2.30
2017-10-25T02:58:10.744Z,2.20
2017-10-25T03:00:37.320Z,2.27
2017-10-25T03:03:03.932Z,2.37
2017-10-25T03:05:30.519Z,2.33
2017-10-25T03:07:57.081Z,2.10
2017-10-25T03:10:23.657Z,1.90
2017-10-25T03:12:50.229Z,1.70
2017-10-25T03:15:16.825Z,2.20
2017-10-25T03:17:43.408Z,1.93
2017-10-25T03:20:09.981Z,2.03
2017-10-25T03:22:36.566Z,2.30
2017-10-25T03:25:03.132Z,2.23
2017-10-25T03:27:29.712Z,2.57
2017-10-25T03:29:56.295Z,2.53
2017-10-25T03:32:22.869Z,2.50
2017-10-25T03:34:49.444Z,2.63
2017-10-25T03:37:16.017Z,3.00
2017-10-25T03:39:42.617Z,2.90
2017-10-25T03:42:09.208Z,3.33
2017-10-25T03:44:35.785Z,3.23
2017-10-25T03:47:02.376Z,3.10
2017-10-25T03:49:28.936Z,3.40
2017-10-25T03:51:55.527Z,3.17
2017-10-25T03:54:22.095Z,3.17
2017-10-25T03:56:48.669Z,3.60
2017-10-25T03:59:15.252Z,3.30
2017-10-25T04:01:41.817Z,3.50
2017-10-25T04:04:08.396Z,3.30
2017-10-25T04:06:34.965Z,3.47
2017-10-25T04:09:01.542Z,3.33
2017-10-25T04:11:28.116Z,3.83
2017-10-25T04:13:54.687Z,3.30
2017-10-25T04:16:21.264Z,3.47
2017-10-25T04:18:47.832Z,3.23
2017-10-25T04:21:14.407Z,3.60
2017-10-25T04:23:41.018Z,3.33
2017-10-25T04:26:07.592Z,3.07
2017-10-25T04:28:34.184Z,3.13
2017-10-25T04:31:00.763Z,2.90
2017-10-25T04:33:27.328Z,2.80
2017-10-25T04:35:53.900Z,3.00
2017-10-25T04:38:20.476Z,2.60
2017-10-25T04:40:47.062Z,2.60
2017-10-25T04:43:13.635Z,2.93
2017-10-25T04:45:40.294Z,2.87
2017-10-25T04:48:06.864Z,2.80
2017-10-25T04:50:33.447Z,2.57
2017-10-25T04:53:00.027Z,2.77
2017-10-25T04:55:26.596Z,2.60
2017-10-25T04:57:53.168Z,2.93
2017-10-25T05:00:19.750Z,3.20
2017-10-25T05:02:46.321Z,2.90
2017-10-25T05:05:12.915Z,2.87
2017-10-25T05:07:39.498Z,2.90
2017-10-25T05:10:06.058Z,2.80
2017-10-25T05:12:32.632Z,3.33
2017-10-25T05:14:59.203Z,3.33
2017-10-25T05:17:25.784Z,3.40
2017-10-25T05:19:52.355Z,3.27
2017-10-25T05:22:18.921Z,3.50
2017-10-25T05:24:45.500Z,3.53
2017-10-25T05:27:12.072Z,3.43
2017-10-25T05:29:38.656Z,3.23
2017-10-25T05:32:05.231Z,3.80
2017-10-25T05:34:31.800Z,4.00
2017-10-25T05:36:58.373Z,3.40
2017-10-25T05:39:24.957Z,3.67
2017-10-25T05:41:51.533Z,3.30
2017-10-25T05:44:18.107Z,3.70
2017-10-25T05:46:44.680Z,3.80
2017-10-25T05:49:11.260Z,3.70
2017-10-25T05:51:37.834Z,3.10
2017-10-25T05:54:04.412Z,3.43
2017-10-25T05:56:31.001Z,3.27
2017-10-25T05:58:57.564Z,3.50
2017-10-25T06:01:24.161Z,3.30
2017-10-25T06:03:50.728Z,3.40
2017-10-25T06:06:17.313Z,3.37
2017-10-25T06:08:43.903Z,3.40
2017-10-25T06:11:10.488Z,3.50
2017-10-25T06:13:37.073Z,3.43
2017-10-25T06:16:03.697Z,4.37
2017-10-25T06:18:30.269Z,4.10
2017-10-25T06:20:56.834Z,3.77
2017-10-25T06:23:23.404Z,3.80
2017-10-25T06:25:49.972Z,3.63
2017-10-25T06:28:16.541Z,3.90
2017-10-25T06:30:43.128Z,3.60
2017-10-25T06:33:09.691Z,3.60
2017-10-25T06:35:36.269Z,3.50
2017-10-25T06:38:02.840Z,3.93
2017-10-25T06:40:29.410Z,3.63
2017-10-25T06:42:55.989Z,3.57
2017-10-25T06:45:22.559Z,3.70
2017-10-25T06:47:49.147Z,3.40
2017-10-25T06:50:15.708Z,3.90
2017-10-25T06:52:42.321Z,3.47
2017-10-25T06:55:08.943Z,3.87
2017-10-25T06:57:35.518Z,3.57
2017-10-25T07:00:02.083Z,3.63
2017-10-25T07:02:28.660Z,3.70
2017-10-25T07:04:55.240Z,4.07
2017-10-25T07:07:21.812Z,3.77
2017-10-25T07:09:48.392Z,3.80
2017-10-25T07:12:14.956Z,3.70
2017-10-25T07:14:41.532Z,3.73
2017-10-25T07:17:08.122Z,4.47
2017-10-25T07:19:34.688Z,4.03
2017-10-25T07:22:01.281Z,4.40
2017-10-25T07:24:27.856Z,4.03
2017-10-25T07:26:54.548Z,4.33
2017-10-25T07:29:21.100Z,3.93
2017-10-25T07:31:47.675Z,3.87
2017-10-25T07:34:14.308Z,5.53
2017-10-25T07:36:40.900Z,4.70
2017-10-25T07:39:07.479Z,4.40
2017-10-25T07:41:34.056Z,4.10
2017-10-25T07:44:00.624Z,4.50
2017-10-25T07:46:27.197Z,4.10
2017-10-25T07:48:53.776Z,4.50
2017-10-25T07:51:20.352Z,4.70
2017-10-25T07:53:46.923Z,4.03
2017-10-25T07:56:13.492Z,3.53
2017-10-25T07:58:40.065Z,3.33
2017-10-25T08:01:06.632Z,3.87
2017-10-25T08:03:33.212Z,3.30
2017-10-25T08:05:59.792Z,3.40
2017-10-25T08:08:26.365Z,3.23
2017-10-25T08:10:52.933Z,3.33
2017-10-25T08:13:19.508Z,3.33
2017-10-25T08:15:46.081Z,3.17
2017-10-25T08:18:12.662Z,3.40
2017-10-25T08:20:39.228Z,3.30
2017-10-25T08:23:05.808Z,3.43
2017-10-25T08:25:32.376Z,3.63
2017-10-25T08:27:58.944Z,3.00
2017-10-25T08:30:25.516Z,3.13
2017-10-25T08:32:52.197Z,3.10
2017-10-25T08:35:18.770Z,3.30
2017-10-25T08:37:45.334Z,3.23
2017-10-25T08:40:11.913Z,3.40
2017-10-25T08:42:38.484Z,3.00
2017-10-25T08:45:05.084Z,3.17
2017-10-25T08:47:31.637Z,3.30
2017-10-25T08:49:58.217Z,2.90
2017-10-25T08:52:24.870Z,2.87
2017-10-25T08:54:51.441Z,3.00
2017-10-25T08:57:18.088Z,2.67
2017-10-25T08:59:44.661Z,2.90
2017-10-25T09:02:11.232Z,2.70
2017-10-25T09:04:37.808Z,2.80
2017-10-25T09:07:04.391Z,3.10
2017-10-25T09:09:30.948Z,3.00
2017-10-25T09:11:57.520Z,2.70
2017-10-25T09:14:24.097Z,2.40
2017-10-25T09:16:50.664Z,2.60
2017-10-25T09:19:17.236Z,2.97
2017-10-25T09:21:43.812Z,2.90
2017-10-25T09:24:10.384Z,3.13
2017-10-25T09:26:36.966Z,3.00
2017-10-25T09:29:03.528Z,2.77
2017-10-25T09:31:30.116Z,2.70
2017-10-25T09:33:56.688Z,3.10
2017-10-25T09:36:23.266Z,2.97
2017-10-25T09:38:49.832Z,2.53
2017-10-25T09:41:16.404Z,2.70
2017-10-25T09:43:42.976Z,2.70
2017-10-25T09:46:09.550Z,2.53
2017-10-25T09:48:36.233Z,2.50
2017-10-25T09:51:02.800Z,2.50
2017-10-25T09:53:29.376Z,2.80
2017-10-25T09:55:55.949Z,2.87
2017-10-25T09:58:22.540Z,2.30
2017-10-25T10:00:49.100Z,2.20
2017-10-25T10:03:15.668Z,2.30
2017-10-25T10:05:42.253Z,2.50
2017-10-25T10:08:08.827Z,2.20
2017-10-25T10:10:35.408Z,2.03
2017-10-25T10:13:02.001Z,2.40
2017-10-25T10:15:28.551Z,2.17
2017-10-25T10:17:55.220Z,2.47
2017-10-25T10:20:21.772Z,2.30
2017-10-25T10:22:48.353Z,2.20
2017-10-25T10:25:14.935Z,2.30
2017-10-25T10:27:41.499Z,1.90
2017-10-25T10:30:08.091Z,2.17
2017-10-25T10:32:34.786Z,2.40
2017-10-25T10:35:01.360Z,2.37
2017-10-25T10:37:27.932Z,2.30
2017-10-25T10:39:54.522Z,2.50
2017-10-25T10:42:21.088Z,2.70
2017-10-25T10:44:49.020Z,2.30
2017-10-25T10:47:15.612Z,2.30
2017-10-25T10:49:42.189Z,2.77
2017-10-25T10:52:08.769Z,2.50
2017-10-25T10:54:35.332Z,2.53
2017-10-25T10:57:02.016Z,2.90
2017-10-25T10:59:28.576Z,2.43
2017-10-25T11:01:55.144Z,3.07
2017-10-25T11:04:21.729Z,3.10
2017-10-25T11:06:48.296Z,3.50
2017-10-25T11:09:14.880Z,6.83
2017-10-25T11:11:41.506Z,15.87
2017-10-25T11:14:08.060Z,8.37
2017-10-25T11:16:34.637Z,4.33
2017-10-25T11:19:01.209Z,4.67
2017-10-25T11:21:27.801Z,2.97
2017-10-25T11:23:54.368Z,3.00
2017-10-25T11:26:20.940Z,3.50
2017-10-25T11:28:47.556Z,3.07
2017-10-25T11:31:14.149Z,3.20
2017-10-25T11:33:40.723Z,3.10
2017-10-25T11:36:07.302Z,4.10
2017-10-25T11:38:33.881Z,3.57
2017-10-25T11:41:00.452Z,4.10
2017-10-25T11:43:27.038Z,3.90
2017-10-25T11:45:53.657Z,9.90
2017-10-25T11:48:20.237Z,5.10
2017-10-25T11:50:46.812Z,6.43
2017-10-25T11:53:13.384Z,3.80
2017-10-25T11:55:39.995Z,3.67
2017-10-25T11:58:06.560Z,5.63
2017-10-25T12:00:33.146Z,3.77
2017-10-25T12:02:59.715Z,3.03
2017-10-25T12:05:26.337Z,3.77
2017-10-25T12:07:52.956Z,4.17
2017-10-25T12:10:19.529Z,3.07
2017-10-25T12:12:46.151Z,22.10
2017-10-25T12:15:12.720Z,3.60
2017-10-25T12:17:39.311Z,3.67
2017-10-25T12:20:05.886Z,3.20
2017-10-25T12:22:32.464Z,3.10
2017-10-25T12:24:59.032Z,4.10
2017-10-25T12:27:25.614Z,3.50
2017-10-25T12:29:52.184Z,3.90
2017-10-25T12:32:18.752Z,3.80
2017-10-25T12:34:45.336Z,3.20
2017-10-25T12:37:11.915Z,3.60
2017-10-25T12:39:38.494Z,4.97
2017-10-25T12:42:05.068Z,3.57
2017-10-25T12:44:31.641Z,4.27
2017-10-25T12:46:58.220Z,3.93
2017-10-25T12:49:24.805Z,3.43
2017-10-25T12:51:51.367Z,3.50
2017-10-25T12:54:17.949Z,3.70
2017-10-25T12:56:44.516Z,3.43
2017-10-25T12:59:11.104Z,3.70
2017-10-25T13:01:37.672Z,2.93
2017-10-25T13:04:04.254Z,3.60
2017-10-25T13:06:30.824Z,4.10
2017-10-25T13:09:03.245Z,3.40
2017-10-25T13:11:38.828Z,4.27
2017-10-25T13:14:25.761Z,3.73
2017-10-25T13:17:18.178Z,3.90
2017-10-25T13:19:44.744Z,4.07
2017-10-25T13:22:11.316Z,3.70
2017-10-25T13:24:37.891Z,3.60
2017-10-25T13:27:04.460Z,3.77
2017-10-25T13:29:31.098Z,4.50
2017-10-25T13:31:57.680Z,5.20
2017-10-25T13:34:24.263Z,4.27
2017-10-25T13:36:51.066Z,5.43
2017-10-25T13:39:17.628Z,6.30
2017-10-25T13:41:44.204Z,6.10
2017-10-25T13:44:10.779Z,5.53
2017-10-25T13:46:37.364Z,7.33
2017-10-25T13:49:03.946Z,5.33
2017-10-25T13:51:30.507Z,5.03
2017-10-25T13:53:57.104Z,5.67
2017-10-25T13:56:23.653Z,5.60
2017-10-25T13:58:50.267Z,5.70
2017-10-25T14:01:16.828Z,5.60
2017-10-25T14:03:43.408Z,5.23
2017-10-25T14:06:09.985Z,6.90
2017-10-25T14:08:36.565Z,5.13
2017-10-25T14:11:03.140Z,4.80
2017-10-25T14:13:29.712Z,5.10
2017-10-25T14:15:56.285Z,4.50
2017-10-25T14:18:22.857Z,4.43
2017-10-25T14:20:49.460Z,4.53
2017-10-25T14:23:16.019Z,4.93
2017-10-25T14:25:42.589Z,4.67
2017-10-25T14:28:14.991Z,4.60
2017-10-25T14:30:41.561Z,4.10
2017-10-25T14:33:08.138Z,4.70
2017-10-25T14:35:34.712Z,4.47
2017-10-25T14:38:01.292Z,5.40
2017-10-25T14:40:27.865Z,4.40
2017-10-25T14:42:54.484Z,4.43
2017-10-25T14:45:21.136Z,5.00
2017-10-25T14:47:47.717Z,4.80
2017-10-25T14:50:14.300Z,4.50
2017-10-25T14:52:40.865Z,4.93
2017-10-25T14:55:07.447Z,5.10
2017-10-25T14:57:34.020Z,4.70
2017-10-25T15:00:00.594Z,4.50
2017-10-25T15:02:27.168Z,4.50
2017-10-25T15:04:53.741Z,4.40
2017-10-25T15:07:20.317Z,4.43
2017-10-25T15:09:46.896Z,4.50
2017-10-25T15:12:13.473Z,4.30
2017-10-25T15:14:40.051Z,4.40
2017-10-25T15:17:06.608Z,4.97
2017-10-25T15:19:33.180Z,4.97
2017-10-25T15:21:59.757Z,4.67
2017-10-25T15:24:26.435Z,4.87
2017-10-25T15:26:53.009Z,4.40
2017-10-25T15:29:19.584Z,4.40
2017-10-25T15:31:47.020Z,4.80
2017-10-25T15:34:13.605Z,4.57
2017-10-25T15:36:40.187Z,4.37
2017-10-25T15:39:06.773Z,5.23
2017-10-25T15:41:33.340Z,5.10
2017-10-25T15:43:59.916Z,5.10
2017-10-25T15:46:26.489Z,5.13
2017-10-25T15:48:53.074Z,5.40
2017-10-25T15:51:19.640Z,5.43
2017-10-25T15:53:46.231Z,5.90
2017-10-25T15:56:12.804Z,5.30
2017-10-25T15:58:39.372Z,5.53
2017-10-25T16:01:05.965Z,5.87
2017-10-25T16:03:32.537Z,5.60
2017-10-25T16:05:59.117Z,5.33
2017-10-25T16:08:25.681Z,5.83
2017-10-25T16:10:52.265Z,5.73
2017-10-25T16:13:18.828Z,6.70
2017-10-25T16:15:45.396Z,5.97
2017-10-25T16:18:11.975Z,5.40
2017-10-25T16:20:38.574Z,6.03
2017-10-25T16:23:05.145Z,5.73
2017-10-25T16:25:31.719Z,5.43
2017-10-25T16:27:58.393Z,5.93
2017-10-25T16:30:24.965Z,5.50
2017-10-25T16:32:51.532Z,5.90
2017-10-25T16:35:18.134Z,6.03
2017-10-25T16:37:44.706Z,6.57
2017-10-25T16:40:11.281Z,5.77
2017-10-25T16:42:37.868Z,6.40
2017-10-25T16:45:04.461Z,7.20
2017-10-25T16:47:31.037Z,7.93
2017-10-25T16:49:57.612Z,7.47
2017-10-25T16:52:24.223Z,8.10
2017-10-25T16:54:50.772Z,8.20
2017-10-25T16:57:17.351Z,9.07
2017-10-25T16:59:43.924Z,8.83
2017-10-25T17:02:10.525Z,8.97
2017-10-25T17:04:37.096Z,7.73
2017-10-25T17:07:03.729Z,8.40
2017-10-25T17:09:30.383Z,7.70
2017-10-25T17:11:56.955Z,8.60
2017-10-25T17:14:23.609Z,7.87
2017-10-25T17:16:50.202Z,8.90
2017-10-25T17:19:16.796Z,8.63
2017-10-25T17:21:43.382Z,8.90
2017-10-25T17:24:09.956Z,8.80
2017-10-25T17:26:36.532Z,8.60
2017-10-25T17:29:03.117Z,9.00
2017-10-25T17:31:29.744Z,9.77
2017-10-25T17:33:56.324Z,10.40
2017-10-25T17:36:22.961Z,10.63
2017-10-25T17:38:49.555Z,11.80
2017-10-25T17:41:16.138Z,12.03
2017-10-25T17:43:42.711Z,11.90
2017-10-25T17:46:09.296Z,11.07
2017-10-25T17:48:35.877Z,11.83
2017-10-25T17:51:02.478Z,12.00
2017-10-25T17:53:29.040Z,11.63
2017-10-25T17:55:55.637Z,11.23
2017-10-25T17:58:22.326Z,12.03
2017-10-25T18:00:48.888Z,12.63
2017-10-25T18:03:15.480Z,12.23
2017-10-25T18:05:42.072Z,11.73
2017-10-25T18:08:08.652Z,13.13
2017-10-25T18:10:35.248Z,13.00
2017-10-25T18:13:01.833Z,13.10
2017-10-25T18:15:28.417Z,11.07
2017-10-25T18:17:54.997Z,12.67
2017-10-25T18:20:21.576Z,12.00
2017-10-25T18:22:48.160Z,12.27
2017-10-25T18:25:14.749Z,13.53
2017-10-25T18:27:41.361Z,13.27
2017-10-25T18:30:07.932Z,11.30
2017-10-25T18:32:34.512Z,12.03
2017-10-25T18:35:01.692Z,12.30
2017-10-25T18:37:28.272Z,12.00
2017-10-25T18:39:54.857Z,13.40
2017-10-25T18:42:21.445Z,12.60
2017-10-25T18:44:48.024Z,13.10
2017-10-25T18:47:14.821Z,14.20
2017-10-25T18:49:41.376Z,11.83
2017-10-25T18:52:07.973Z,14.03
2017-10-25T18:54:35.462Z,13.97
2017-10-25T18:57:02.029Z,14.50
2017-10-25T18:59:28.616Z,13.30
2017-10-25T19:02:01.433Z,13.20
2017-10-25T19:04:28.685Z,13.90
2017-10-25T19:06:55.263Z,13.10
2017-10-25T19:09:21.843Z,13.70
2017-10-25T19:11:50.420Z,13.83
2017-10-25T19:14:17.005Z,13.67
2017-10-25T19:16:43.688Z,13.00
2017-10-25T19:19:10.296Z,15.10
2017-10-25T19:21:36.888Z,14.13
2017-10-25T19:24:03.572Z,13.60
2017-10-25T19:26:30.152Z,16.23
2017-10-25T19:28:56.736Z,16.27
2017-10-25T19:31:23.361Z,15.77
2017-10-25T19:33:49.949Z,15.27
2017-10-25T19:36:16.524Z,15.60
2017-10-25T19:38:43.138Z,15.03
2017-10-25T19:41:09.823Z,16.50
2017-10-25T19:43:36.382Z,15.50
2017-10-25T19:46:02.960Z,15.37
2017-10-25T19:48:29.537Z,15.83
2017-10-25T19:50:56.145Z,15.00
2017-10-25T19:53:22.721Z,15.53
2017-10-25T19:55:49.332Z,15.97
2017-10-25T19:58:15.935Z,15.87
2017-10-25T20:00:42.547Z,14.80
2017-10-25T20:03:09.133Z,16.50
2017-10-25T20:05:35.712Z,16.37
2017-10-25T20:08:12.520Z,16.50
2017-10-25T20:10:39.096Z,15.90
2017-10-25T20:13:05.740Z,15.10
2017-10-25T20:15:32.328Z,14.10
2017-10-25T20:17:58.901Z,12.23
2017-10-25T20:20:25.510Z,11.57
2017-10-25T20:22:52.069Z,13.13
2017-10-25T20:25:18.657Z,12.20
2017-10-25T20:27:45.310Z,13.30
2017-10-25T20:30:11.880Z,13.23
2017-10-25T20:32:38.456Z,13.00
2017-10-25T20:35:05.033Z,13.67
2017-10-25T20:37:31.613Z,13.37
2017-10-25T20:39:58.204Z,14.10
2017-10-25T20:42:24.793Z,13.90
2017-10-25T20:44:51.377Z,14.53
2017-10-25T20:47:17.959Z,13.20
2017-10-25T20:49:44.550Z,13.53
2017-10-25T20:52:11.140Z,13.53
2017-10-25T20:54:37.736Z,13.63
2017-10-25T20:57:04.316Z,13.03
2017-10-25T20:59:30.897Z,13.23
2017-10-25T21:01:57.472Z,13.30
2017-10-25T21:04:24.048Z,13.83
2017-10-25T21:06:50.637Z,14.27
2017-10-25T21:09:17.212Z,14.20
2017-10-25T21:11:43.793Z,13.03
2017-10-25T21:14:10.380Z,13.20
2017-10-25T21:16:36.957Z,13.90
2017-10-25T21:19:03.544Z,13.33
2017-10-25T21:21:30.132Z,13.07
2017-10-25T21:23:56.723Z,13.23
2017-10-25T21:26:23.307Z,12.80
2017-10-25T21:28:49.884Z,13.50
2017-10-25T21:31:16.533Z,12.77
2017-10-25T21:33:43.108Z,13.63
2017-10-25T21:36:09.702Z,13.57
2017-10-25T21:38:36.292Z,12.60
2017-10-25T21:41:02.880Z,13.90
2017-10-25T21:43:29.460Z,15.10
2017-10-25T21:45:56.050Z,13.80
2017-10-25T21:48:22.734Z,13.97
2017-10-25T21:50:49.312Z,13.30
2017-10-25T21:53:15.904Z,13.27
2017-10-25T21:55:42.484Z,13.67
2017-10-25T21:58:09.077Z,14.70
2017-10-25T22:00:35.660Z,14.00
2017-10-25T22:03:02.433Z,12.40
2017-10-25T22:05:29.021Z,12.20
2017-10-25T22:07:55.647Z,11.23
2017-10-25T22:10:22.275Z,11.47
2017-10-25T22:12:48.893Z,12.43
2017-10-25T22:15:15.530Z,12.47
2017-10-25T22:17:42.105Z,13.47
2017-10-25T22:20:08.712Z,12.33
2017-10-25T22:22:35.300Z,11.90
2017-10-25T22:25:01.888Z,12.47
2017-10-25T22:27:28.465Z,11.47
2017-10-25T22:29:55.045Z,11.60
2017-10-25T22:32:21.628Z,11.53
2017-10-25T22:34:48.204Z,12.10
2017-10-25T22:37:14.784Z,12.40
2017-10-25T22:39:41.380Z,11.70
2017-10-25T22:42:07.954Z,12.07
2017-10-25T22:44:34.550Z,11.27
2017-10-25T22:47:01.129Z,11.00
2017-10-25T22:49:30.172Z,11.17
2017-10-25T22:51:56.765Z,10.70
2017-10-25T22:54:23.373Z,11.07
2017-10-25T22:56:50.047Z,10.50
2017-10-25T22:59:16.649Z,10.83
2017-10-25T23:01:43.224Z,10.30
2017-10-25T23:04:09.800Z,10.57
2017-10-25T23:06:36.383Z,10.17
2017-10-25T23:09:02.959Z,11.43
2017-10-25T23:11:29.559Z,10.60
2017-10-25T23:13:56.138Z,10.60
2017-10-25T23:16:22.723Z,12.17
2017-10-25T23:18:49.345Z,11.77
2017-10-25T23:21:15.932Z,14.63
2017-10-25T23:23:42.513Z,14.00
2017-10-25T23:26:09.084Z,14.73
2017-10-25T23:28:35.676Z,14.30
2017-10-25T23:31:02.260Z,14.40
2017-10-25T23:33:28.844Z,14.37
2017-10-25T23:35:55.428Z,16.47
2017-10-25T23:38:22.004Z,16.03
2017-10-25T23:40:48.597Z,15.57
2017-10-25T23:43:15.183Z,15.47
2017-10-25T23:45:41.760Z,15.40
2017-10-25T23:48:08.344Z,15.10
2017-10-25T23:50:34.923Z,15.63
2017-10-25T23:53:01.514Z,15.97
2017-10-25T23:55:28.093Z,15.83
2017-10-25T23:57:54.685Z,15.23
